createdAt,value
2022-12-23T00:01:23.153Z,98.42
2022-12-23T00:03:50.185Z,98.28
2022-12-23T00:06:18.245Z,98.26
2022-12-23T00:08:46.531Z,98.08
2022-12-23T00:11:18.164Z,97.61
2022-12-23T00:14:03.706Z,97.91
2022-12-23T00:16:30.248Z,97.59
2022-12-23T00:18:56.875Z,97.84
2022-12-23T00:21:23.541Z,97.59
2022-12-23T00:23:51.364Z,97.82
2022-12-23T00:26:26.172Z,98.24
2022-12-23T00:28:53.053Z,98.01
2022-12-23T00:31:19.940Z,98.13
2022-12-23T00:33:48.280Z,97.55
2022-12-23T00:36:19.291Z,97.50
2022-12-23T00:39:05.065Z,97.79
2022-12-23T00:41:50.124Z,97.78
2022-12-23T00:44:16.560Z,97.81
2022-12-23T00:46:43.180Z,98.22
2022-12-23T00:49:31.413Z,97.97
2022-12-23T00:51:58.390Z,98.43
2022-12-23T00:54:24.847Z,97.69
2022-12-23T00:56:52.307Z,96.78
2022-12-23T00:59:18.863Z,97.09
2022-12-23T01:02:04.160Z,96.99
2022-12-23T01:04:49.311Z,96.64
2022-12-23T01:07:15.742Z,95.64
2022-12-23T01:09:42.192Z,95.49
2022-12-23T01:12:08.608Z,95.18
2022-12-23T01:14:35.214Z,95.23
2022-12-23T01:17:01.671Z,94.29
2022-12-23T01:19:28.612Z,94.73
2022-12-23T01:21:55.207Z,95.09
2022-12-23T01:24:22.252Z,95.06
2022-12-23T01:26:48.790Z,96.12
2022-12-23T01:29:15.176Z,96.21
2022-12-23T01:31:41.689Z,96.42
2022-12-23T01:34:08.267Z,96.71
2022-12-23T01:36:34.663Z,97.10
2022-12-23T01:39:01.207Z,97.24
2022-12-23T01:41:48.780Z,97.13
2022-12-23T01:44:52.192Z,97.33
2022-12-23T01:47:43.747Z,96.74
2022-12-23T01:50:27.932Z,96.36
2022-12-23T01:53:07.290Z,96.59
2022-12-23T01:55:49.583Z,96.46
2022-12-23T01:58:34.914Z,96.05
2022-12-23T02:01:20.542Z,95.24
2022-12-23T02:03:49.199Z,95.39
2022-12-23T02:06:41.026Z,94.24
2022-12-23T02:09:19.909Z,94.27
2022-12-23T02:12:11.050Z,94.30
2022-12-23T02:15:21.065Z,94.24
2022-12-23T02:18:06.226Z,94.21
2022-12-23T02:21:08.687Z,94.69
2022-12-23T02:24:05.058Z,95.69
2022-12-23T02:26:59.097Z,96.03
2022-12-23T02:29:49.382Z,95.88
2022-12-23T02:32:20.438Z,96.27
2022-12-23T02:34:55.740Z,95.91
2022-12-23T02:37:36.222Z,96.00
2022-12-23T02:40:55.385Z,96.25
2022-12-23T02:43:44.745Z,96.97
2022-12-23T02:46:34.228Z,96.62
2022-12-23T02:49:10.871Z,97.58
2022-12-23T02:51:42.434Z,97.64
2022-12-23T02:54:13.581Z,97.54
2022-12-23T02:56:43.309Z,97.88
2022-12-23T02:59:15.295Z,97.84
2022-12-23T03:01:43.461Z,97.53
2022-12-23T03:04:09.978Z,97.85
2022-12-23T03:06:42.120Z,97.42
2022-12-23T03:09:08.933Z,97.41
2022-12-23T03:11:48.477Z,97.53
2022-12-23T03:14:17.758Z,97.54
2022-12-23T03:17:20.831Z,97.73
2022-12-23T03:20:00.198Z,97.59
2022-12-23T03:22:35.703Z,97.77
2022-12-23T03:25:26.062Z,97.94
2022-12-23T03:28:13.429Z,98.19
2022-12-23T03:30:43.133Z,98.28
2022-12-23T03:33:29.843Z,98.35
2022-12-23T03:36:01.068Z,98.34
2022-12-23T03:38:28.777Z,98.71
2022-12-23T03:41:00.614Z,98.79
2022-12-23T03:43:30.696Z,98.62
2022-12-23T03:46:02.638Z,98.72
2022-12-23T03:48:38.642Z,98.49
2022-12-23T03:51:11.592Z,98.32
2022-12-23T03:53:45.327Z,98.37
2022-12-23T03:56:18.978Z,98.54
2022-12-23T03:59:14.231Z,98.52
2022-12-23T04:02:28.332Z,98.37
2022-12-23T04:05:12.705Z,98.70
2022-12-23T04:07:51.602Z,98.76
2022-12-23T04:10:21.159Z,98.82
2022-12-23T04:12:48.597Z,98.84
2022-12-23T04:15:20.146Z,98.85
2022-12-23T04:17:46.529Z,98.88
2022-12-23T04:20:12.962Z,99.04
2022-12-23T04:22:39.611Z,98.37
2022-12-23T04:25:06.512Z,98.54
2022-12-23T04:27:32.958Z,98.47
2022-12-23T04:29:59.319Z,98.38
2022-12-23T04:32:26.797Z,98.52
2022-12-23T04:34:53.199Z,98.49
2022-12-23T04:37:19.558Z,98.47
2022-12-23T04:39:45.926Z,98.34
2022-12-23T04:42:12.371Z,98.46
2022-12-23T04:44:38.735Z,98.54
2022-12-23T04:47:05.359Z,98.12
2022-12-23T04:49:31.810Z,98.32
2022-12-23T04:51:58.366Z,98.21
2022-12-23T04:54:24.738Z,98.29
2022-12-23T04:56:51.161Z,97.83
2022-12-23T04:59:17.629Z,97.96
2022-12-23T05:01:44.150Z,97.91
2022-12-23T05:04:11.169Z,97.79
2022-12-23T05:06:38.078Z,97.81
2022-12-23T05:09:05.190Z,97.33
2022-12-23T05:11:34.068Z,97.32
2022-12-23T05:14:03.567Z,97.35
2022-12-23T05:16:31.586Z,97.20
2022-12-23T05:18:58.263Z,96.72
2022-12-23T05:21:24.672Z,97.12
2022-12-23T05:23:51.486Z,97.02
2022-12-23T05:26:18.125Z,96.84
2022-12-23T05:28:45.617Z,97.07
2022-12-23T05:31:12.893Z,97.24
2022-12-23T05:33:39.680Z,97.09
2022-12-23T05:36:07.124Z,96.83
2022-12-23T05:38:33.871Z,97.07
2022-12-23T05:41:00.336Z,96.73
2022-12-23T05:43:26.831Z,96.90
2022-12-23T05:45:53.251Z,96.18
2022-12-23T05:48:19.756Z,96.23
2022-12-23T05:50:49.811Z,95.83
2022-12-23T05:53:16.341Z,96.00
2022-12-23T05:55:42.722Z,95.69
2022-12-23T05:58:09.134Z,96.44
2022-12-23T06:00:35.544Z,97.32
2022-12-23T06:03:02.038Z,97.74
2022-12-23T06:05:28.829Z,97.49
2022-12-23T06:07:55.176Z,97.12
2022-12-23T06:10:21.652Z,97.17
2022-12-23T06:12:48.052Z,97.37
2022-12-23T06:15:15.570Z,97.79
2022-12-23T06:17:42.023Z,97.62
2022-12-23T06:20:11.214Z,98.48
2022-12-23T06:22:42.612Z,98.81
2022-12-23T06:25:09.211Z,98.90
2022-12-23T06:27:35.638Z,98.89
2022-12-23T06:30:02.071Z,99.42
2022-12-23T06:32:31.594Z,99.84
2022-12-23T06:35:02.582Z,100.00
2022-12-23T06:37:28.989Z,100.00
2022-12-23T06:39:55.372Z,100.00
2022-12-23T06:42:21.733Z,100.00
2022-12-23T06:44:48.130Z,100.00
2022-12-23T06:47:14.585Z,100.00
2022-12-23T06:49:40.961Z,100.00
2022-12-23T06:52:07.368Z,100.00
2022-12-23T06:54:33.773Z,100.00
2022-12-23T06:57:00.263Z,100.00
2022-12-23T06:59:26.970Z,100.00
2022-12-23T07:01:53.375Z,100.00
2022-12-23T07:04:19.804Z,100.00
2022-12-23T07:06:46.198Z,100.00
2022-12-23T07:09:12.651Z,100.00
2022-12-23T07:11:39.033Z,100.00
2022-12-23T07:14:05.435Z,100.00
2022-12-23T07:16:33.180Z,100.00
2022-12-23T07:19:00.047Z,100.00
2022-12-23T07:21:29.486Z,100.00
2022-12-23T07:23:56.613Z,100.00
2022-12-23T07:26:22.983Z,100.00
2022-12-23T07:28:49.511Z,100.00
2022-12-23T07:31:16.117Z,100.00
2022-12-23T07:33:42.888Z,100.00
2022-12-23T07:36:09.813Z,100.00
2022-12-23T07:38:36.591Z,100.00
2022-12-23T07:41:03.123Z,100.00
2022-12-23T07:43:29.586Z,100.00
2022-12-23T07:46:00.455Z,100.00
2022-12-23T07:48:27.539Z,100.00
2022-12-23T07:51:01.229Z,100.00
2022-12-23T07:53:27.875Z,100.00
2022-12-23T07:55:56.593Z,100.00
2022-12-23T07:58:23.999Z,100.00
2022-12-23T08:00:50.564Z,100.00
2022-12-23T08:03:17.146Z,100.00
2022-12-23T08:05:43.644Z,100.00
2022-12-23T08:08:10.032Z,99.94
2022-12-23T08:10:36.626Z,99.99
2022-12-23T08:13:04.624Z,100.00
2022-12-23T08:15:31.009Z,100.00
2022-12-23T08:17:57.434Z,100.00
2022-12-23T08:20:23.912Z,100.00
2022-12-23T08:22:50.296Z,100.00
2022-12-23T08:25:16.660Z,99.91
2022-12-23T08:27:43.043Z,100.00
2022-12-23T08:30:09.989Z,100.00
2022-12-23T08:32:36.392Z,100.00
2022-12-23T08:35:02.793Z,100.00
2022-12-23T08:37:29.433Z,100.00
2022-12-23T08:39:55.819Z,100.00
2022-12-23T08:42:22.217Z,100.00
2022-12-23T08:44:48.629Z,100.00
2022-12-23T08:47:15.046Z,100.00
2022-12-23T08:49:41.555Z,100.00
2022-12-23T08:52:07.944Z,100.00
2022-12-23T08:54:34.395Z,100.00
2022-12-23T08:57:00.910Z,100.00
2022-12-23T08:59:27.287Z,100.00
2022-12-23T09:01:53.812Z,100.00
2022-12-23T09:04:20.340Z,100.00
2022-12-23T09:06:46.750Z,99.87
2022-12-23T09:09:15.634Z,99.89
2022-12-23T09:11:43.005Z,99.70
2022-12-23T09:14:10.767Z,100.00
2022-12-23T09:16:37.886Z,99.68
2022-12-23T09:19:04.775Z,99.50
2022-12-23T09:21:31.439Z,99.22
2022-12-23T09:23:57.816Z,99.25
2022-12-23T09:26:27.536Z,99.42
2022-12-23T09:28:56.043Z,99.42
2022-12-23T09:31:24.084Z,99.82
2022-12-23T09:33:52.925Z,99.44
2022-12-23T09:36:19.913Z,99.39
2022-12-23T09:38:46.392Z,99.55
2022-12-23T09:41:29.517Z,99.17
2022-12-23T09:44:18.328Z,99.56
2022-12-23T09:46:52.410Z,99.50
2022-12-23T09:49:20.931Z,99.40
2022-12-23T09:51:49.261Z,99.69
2022-12-23T09:54:20.898Z,99.59
2022-12-23T09:57:25.246Z,99.42
2022-12-23T09:59:51.808Z,99.41
2022-12-23T10:02:30.358Z,99.43
2022-12-23T10:05:24.243Z,99.55
2022-12-23T10:07:58.906Z,99.58
2022-12-23T10:10:40.923Z,99.34
2022-12-23T10:13:18.164Z,99.39
2022-12-23T10:15:47.988Z,99.12
2022-12-23T10:18:44.993Z,98.75
2022-12-23T10:21:19.075Z,99.02
2022-12-23T10:23:50.686Z,98.47
2022-12-23T10:26:31.169Z,98.87
2022-12-23T10:29:19.986Z,99.11
2022-12-23T10:32:09.748Z,99.25
2022-12-23T10:34:51.037Z,98.92
2022-12-23T10:37:38.728Z,99.22
2022-12-23T10:40:25.817Z,99.26
2022-12-23T10:43:12.273Z,99.34
2022-12-23T10:45:51.949Z,100.00
2022-12-23T10:48:36.723Z,99.89
2022-12-23T10:51:08.474Z,99.73
2022-12-23T10:53:42.029Z,99.42
2022-12-23T10:56:08.785Z,99.42
2022-12-23T10:58:40.660Z,99.79
2022-12-23T11:01:16.117Z,98.80
2022-12-23T11:04:07.338Z,98.47
2022-12-23T11:06:39.959Z,98.22
2022-12-23T11:09:12.098Z,98.07
2022-12-23T11:11:59.795Z,97.62
2022-12-23T11:14:50.946Z,97.76
2022-12-23T11:17:28.696Z,97.75
2022-12-23T11:20:07.342Z,97.52
2022-12-23T11:22:33.828Z,96.74
2022-12-23T11:25:28.470Z,96.61
2022-12-23T11:28:00.108Z,96.86
2022-12-23T11:30:29.195Z,96.37
2022-12-23T11:32:56.363Z,95.88
2022-12-23T11:35:27.955Z,96.40
2022-12-23T11:37:55.304Z,95.82
2022-12-23T11:40:28.513Z,95.94
2022-12-23T11:43:01.733Z,96.35
2022-12-23T11:45:36.393Z,96.54
2022-12-23T11:48:25.821Z,96.39
2022-12-23T11:51:01.089Z,95.67
2022-12-23T11:53:27.794Z,95.77
2022-12-23T11:56:05.695Z,95.64
2022-12-23T11:58:47.351Z,95.72
2022-12-23T12:01:18.632Z,95.85
2022-12-23T12:03:50.471Z,95.67
2022-12-23T12:06:19.550Z,96.17
2022-12-23T12:08:51.138Z,96.08
2022-12-23T12:11:23.299Z,96.82
2022-12-23T12:13:56.954Z,96.36
2022-12-23T12:16:42.125Z,96.38
2022-12-23T12:19:27.297Z,96.51
2022-12-23T12:22:00.683Z,96.45
2022-12-23T12:24:38.520Z,96.55
2022-12-23T12:27:07.541Z,96.47
2022-12-23T12:29:52.643Z,96.24
2022-12-23T12:32:36.401Z,96.18
2022-12-23T12:35:16.565Z,96.22
2022-12-23T12:37:49.422Z,95.56
2022-12-23T12:40:40.939Z,95.62
2022-12-23T12:43:19.328Z,95.81
2022-12-23T12:45:52.744Z,95.40
2022-12-23T12:48:36.230Z,95.44
2022-12-23T12:51:52.590Z,95.72
2022-12-23T12:54:27.453Z,95.02
2022-12-23T12:56:56.449Z,95.01
2022-12-23T12:59:27.811Z,94.97
2022-12-23T13:02:22.096Z,95.19
2022-12-23T13:05:18.762Z,95.16
2022-12-23T13:08:07.910Z,95.22
2022-12-23T13:10:39.302Z,95.19
2022-12-23T13:13:24.693Z,95.39
2022-12-23T13:16:03.309Z,95.15
2022-12-23T13:18:39.583Z,95.13
2022-12-23T13:21:13.317Z,95.44
2022-12-23T13:23:53.410Z,95.21
2022-12-23T13:26:33.361Z,95.17
2022-12-23T13:29:37.638Z,95.14
2022-12-23T13:32:21.929Z,95.27
2022-12-23T13:35:01.987Z,95.24
2022-12-23T13:38:04.145Z,94.92
2022-12-23T13:40:57.428Z,94.77
2022-12-23T13:43:25.944Z,94.88
2022-12-23T13:45:54.689Z,94.85
2022-12-23T13:48:38.124Z,94.49
2022-12-23T13:51:19.730Z,94.36
2022-12-23T13:54:14.620Z,93.62
2022-12-23T13:56:55.650Z,93.40
2022-12-23T13:59:22.097Z,93.55
2022-12-23T14:01:52.413Z,93.92
2022-12-23T14:04:35.278Z,94.46
2022-12-23T14:07:18.980Z,94.42
2022-12-23T14:09:58.498Z,94.67
2022-12-23T14:12:37.170Z,94.44
2022-12-23T14:15:24.335Z,94.23
2022-12-23T14:18:15.593Z,94.32
2022-12-23T14:20:56.669Z,94.50
2022-12-23T14:23:45.617Z,94.08
2022-12-23T14:26:39.305Z,94.18
2022-12-23T14:29:33.626Z,94.38
2022-12-23T14:32:00.291Z,93.62
2022-12-23T14:34:32.012Z,94.11
2022-12-23T14:37:20.445Z,94.28
2022-12-23T14:39:48.054Z,94.52
2022-12-23T14:42:35.771Z,95.19
2022-12-23T14:45:41.634Z,95.83
2022-12-23T14:48:36.087Z,95.75
2022-12-23T14:51:22.995Z,96.04
2022-12-23T14:53:52.478Z,95.80
2022-12-23T14:56:18.803Z,95.91
2022-12-23T14:58:51.529Z,95.93
2022-12-23T15:01:38.343Z,95.42
2022-12-23T15:04:13.861Z,95.24
2022-12-23T15:06:42.657Z,95.27
2022-12-23T15:09:19.946Z,95.64
2022-12-23T15:11:47.012Z,95.53
2022-12-23T15:14:25.236Z,95.59
2022-12-23T15:16:51.711Z,95.24
2022-12-23T15:19:22.238Z,95.09
2022-12-23T15:21:56.518Z,93.34
2022-12-23T15:24:26.955Z,93.12
2022-12-23T15:27:24.614Z,92.13
2022-12-23T15:29:45.764Z,92.95
2022-12-23T15:32:12.173Z,93.21
2022-12-23T15:34:38.640Z,93.44
2022-12-23T15:37:15.911Z,93.73
2022-12-23T15:39:45.000Z,93.93
2022-12-23T15:42:31.129Z,93.71
2022-12-23T15:44:58.509Z,92.96
2022-12-23T15:47:38.630Z,91.98
2022-12-23T15:50:15.397Z,91.77
2022-12-23T15:52:44.533Z,91.89
2022-12-23T15:55:14.987Z,92.63
2022-12-23T15:57:49.728Z,92.87
2022-12-23T16:00:22.934Z,92.93
2022-12-23T16:03:00.946Z,94.08
2022-12-23T16:05:36.112Z,94.22
2022-12-23T16:08:29.236Z,94.75
2022-12-23T16:11:16.363Z,95.27
2022-12-23T16:13:58.462Z,95.97
2022-12-23T16:16:45.776Z,95.78
2022-12-23T16:19:50.842Z,94.26
2022-12-23T16:22:20.389Z,94.57
2022-12-23T16:24:54.452Z,94.30
2022-12-23T16:27:33.200Z,94.84
2022-12-23T16:30:03.031Z,94.75
2022-12-23T16:32:29.547Z,95.25
2022-12-23T16:34:55.966Z,95.47
2022-12-23T16:37:22.334Z,95.27
2022-12-23T16:39:48.737Z,95.44
2022-12-23T16:42:15.105Z,95.58
2022-12-23T16:44:41.568Z,95.45
2022-12-23T16:47:17.136Z,95.75
2022-12-23T16:49:43.683Z,95.54
2022-12-23T16:52:14.176Z,95.67
2022-12-23T16:54:42.484Z,95.22
2022-12-23T16:57:10.213Z,94.74
2022-12-23T16:59:37.349Z,95.24
2022-12-23T17:02:04.133Z,94.36
2022-12-23T17:04:30.669Z,94.30
2022-12-23T17:06:57.027Z,93.92
2022-12-23T17:09:23.406Z,93.96
2022-12-23T17:11:53.789Z,94.05
2022-12-23T17:14:23.246Z,94.45
2022-12-23T17:16:50.849Z,94.73
2022-12-23T17:19:23.346Z,94.41
2022-12-23T17:21:59.660Z,93.59
2022-12-23T17:24:27.340Z,92.71
2022-12-23T17:26:56.743Z,92.61
2022-12-23T17:29:23.482Z,92.81
2022-12-23T17:31:50.775Z,92.90
2022-12-23T17:34:20.442Z,92.93
2022-12-23T17:36:50.256Z,92.86
2022-12-23T17:39:17.420Z,92.52
2022-12-23T17:41:43.907Z,93.09
2022-12-23T17:44:13.644Z,93.91
2022-12-23T17:46:40.086Z,94.19
2022-12-23T17:49:06.467Z,94.09
2022-12-23T17:51:32.898Z,94.33
2022-12-23T17:53:59.862Z,94.62
2022-12-23T17:56:28.598Z,95.18
2022-12-23T17:58:55.035Z,95.57
2022-12-23T18:01:27.807Z,95.58
2022-12-23T18:03:55.467Z,95.25
2022-12-23T18:06:23.407Z,95.37
2022-12-23T18:08:50.213Z,95.68
2022-12-23T18:11:31.634Z,95.59
2022-12-23T18:13:58.142Z,95.16
2022-12-23T18:16:24.659Z,95.31
2022-12-23T18:18:51.797Z,95.07
2022-12-23T18:21:23.568Z,94.93
2022-12-23T18:23:51.049Z,95.27
2022-12-23T18:26:17.758Z,95.63
2022-12-23T18:28:44.309Z,96.08
2022-12-23T18:31:17.195Z,95.83
2022-12-23T18:33:44.517Z,96.07
2022-12-23T18:36:30.327Z,96.07
2022-12-23T18:38:57.590Z,95.96
2022-12-23T18:41:25.954Z,96.15
2022-12-23T18:43:53.351Z,96.47
2022-12-23T18:46:20.318Z,96.42
2022-12-23T18:48:47.063Z,96.57
2022-12-23T18:51:18.424Z,96.44
2022-12-23T18:53:45.730Z,96.44
2022-12-23T18:56:20.893Z,96.43
2022-12-23T18:58:47.374Z,96.78
2022-12-23T19:01:15.961Z,96.62
2022-12-23T19:03:42.967Z,96.82
2022-12-23T19:06:12.820Z,96.03
2022-12-23T19:08:40.511Z,95.59
2022-12-23T19:11:15.493Z,95.52
2022-12-23T19:13:41.986Z,95.57
2022-12-23T19:16:12.912Z,95.97
2022-12-23T19:18:39.305Z,96.13
2022-12-23T19:21:06.172Z,95.97
2022-12-23T19:23:32.833Z,96.05
2022-12-23T19:25:59.201Z,95.89
2022-12-23T19:28:25.808Z,96.12
2022-12-23T19:30:52.269Z,96.15
2022-12-23T19:33:18.829Z,96.08
2022-12-23T19:35:45.277Z,96.09
2022-12-23T19:38:12.374Z,96.02
2022-12-23T19:40:39.315Z,95.95
2022-12-23T19:43:05.747Z,96.37
2022-12-23T19:45:32.119Z,96.34
2022-12-23T19:47:58.491Z,95.97
2022-12-23T19:50:26.554Z,95.62
2022-12-23T19:52:54.671Z,95.92
2022-12-23T19:55:21.099Z,96.21
2022-12-23T19:57:47.567Z,96.09
2022-12-23T20:00:15.878Z,96.22
2022-12-23T20:02:42.541Z,96.12
2022-12-23T20:05:10.166Z,96.49
2022-12-23T20:07:36.987Z,96.33
2022-12-23T20:10:04.782Z,96.94
2022-12-23T20:12:31.303Z,96.82
2022-12-23T20:14:57.937Z,96.73
2022-12-23T20:17:24.356Z,96.59
2022-12-23T20:19:50.733Z,96.79
2022-12-23T20:22:17.155Z,96.19
2022-12-23T20:24:43.621Z,95.94
2022-12-23T20:27:12.119Z,95.54
2022-12-23T20:29:39.758Z,95.54
2022-12-23T20:32:06.139Z,95.90
2022-12-23T20:34:38.767Z,96.15
2022-12-23T20:37:06.603Z,96.34
2022-12-23T20:39:33.080Z,96.44
2022-12-23T20:41:59.442Z,96.47
2022-12-23T20:44:35.201Z,96.59
2022-12-23T20:47:03.957Z,96.72
2022-12-23T20:49:30.610Z,97.01
2022-12-23T20:51:57.087Z,97.07
2022-12-23T20:54:29.729Z,96.97
2022-12-23T20:56:58.548Z,97.12
2022-12-23T20:59:24.939Z,96.97
2022-12-23T21:01:51.493Z,97.45
2022-12-23T21:04:18.018Z,97.25
2022-12-23T21:06:44.617Z,97.29
2022-12-23T21:09:13.358Z,97.33
2022-12-23T21:11:43.112Z,97.44
2022-12-23T21:14:09.816Z,97.60
2022-12-23T21:16:37.591Z,98.09
2022-12-23T21:19:05.806Z,97.76
2022-12-23T21:21:32.208Z,97.95
2022-12-23T21:24:01.347Z,98.07
2022-12-23T21:26:29.754Z,98.19
2022-12-23T21:28:59.372Z,97.84
2022-12-23T21:31:27.559Z,97.32
2022-12-23T21:33:54.596Z,96.67
2022-12-23T21:36:23.764Z,96.58
2022-12-23T21:38:50.612Z,96.41
2022-12-23T21:41:22.996Z,96.67
2022-12-23T21:43:49.721Z,97.17
2022-12-23T21:46:20.486Z,97.54
2022-12-23T21:48:47.834Z,97.57
2022-12-23T21:51:22.652Z,97.39
2022-12-23T21:53:54.779Z,97.67
2022-12-23T21:56:24.302Z,97.51
2022-12-23T21:58:54.670Z,97.94
2022-12-23T22:01:21.220Z,97.84
2022-12-23T22:03:49.483Z,97.89
2022-12-23T22:06:18.702Z,98.24
2022-12-23T22:08:45.577Z,98.29
2022-12-23T22:11:15.410Z,98.31
2022-12-23T22:13:42.940Z,98.19
2022-12-23T22:16:18.007Z,98.47
2022-12-23T22:18:44.992Z,98.12
2022-12-23T22:21:17.481Z,98.24
2022-12-23T22:23:43.987Z,98.00
2022-12-23T22:26:16.421Z,98.44
2022-12-23T22:28:45.478Z,98.38
2022-12-23T22:31:20.016Z,98.40
2022-12-23T22:33:46.774Z,98.47
2022-12-23T22:36:14.909Z,98.66
2022-12-23T22:38:42.096Z,98.68
2022-12-23T22:41:10.526Z,98.55
2022-12-23T22:43:37.615Z,98.46
2022-12-23T22:46:04.226Z,98.58
2022-12-23T22:48:30.958Z,98.60
2022-12-23T22:51:05.447Z,98.57
2022-12-23T22:53:32.664Z,98.18
2022-12-23T22:55:59.920Z,98.26
2022-12-23T22:58:27.942Z,98.02
2022-12-23T23:00:54.463Z,98.26
2022-12-23T23:03:21.257Z,98.37
2022-12-23T23:05:59.617Z,98.64
2022-12-23T23:08:27.070Z,98.42
2022-12-23T23:10:57.011Z,98.62
2022-12-23T23:13:25.091Z,98.64
2022-12-23T23:15:51.621Z,98.92
2022-12-23T23:18:18.061Z,99.06
2022-12-23T23:20:44.421Z,98.73
2022-12-23T23:23:10.799Z,98.75
2022-12-23T23:25:37.226Z,98.77
2022-12-23T23:28:03.881Z,98.91
2022-12-23T23:30:30.374Z,99.10
2022-12-23T23:32:56.738Z,98.92
2022-12-23T23:35:23.118Z,99.01
2022-12-23T23:37:49.567Z,99.14
2022-12-23T23:40:15.995Z,98.95
2022-12-23T23:42:42.391Z,99.23
2022-12-23T23:45:09.152Z,99.06
2022-12-23T23:47:35.549Z,99.08
2022-12-23T23:50:02.372Z,98.97
2022-12-23T23:52:29.099Z,99.00
2022-12-23T23:54:55.623Z,99.13
2022-12-23T23:57:22.095Z,99.21
2022-12-23T23:59:48.766Z,99.22
